createdAt,value
2016-08-18T00:05:02.381Z,19.17
2016-08-18T00:11:02.614Z,21.12
2016-08-18T00:17:02.885Z,20.81
2016-08-18T00:23:03.149Z,34.98
2016-08-18T00:29:03.460Z,18.43
2016-08-18T00:39:03.876Z,37.28
2016-08-18T00:45:04.121Z,22.45
2016-08-18T01:04:04.956Z,33.63
2016-08-18T01:12:05.275Z,15.89
2016-08-18T01:23:05.794Z,16.04
2016-08-18T01:32:06.298Z,22.32
2016-08-18T01:39:06.610Z,18.73
2016-08-18T01:48:07.102Z,22.41
2016-08-18T02:08:08.094Z,24.08
2016-08-18T02:17:08.575Z,38.61
2016-08-18T02:23:08.902Z,24.72
2016-08-18T02:36:09.593Z,26.22
2016-08-18T02:48:10.242Z,28.76
2016-08-18T03:00:10.901Z,8.75
2016-08-18T03:06:11.234Z,3.24
2016-08-18T03:12:11.583Z,4.63
2016-08-18T03:18:11.902Z,45.38
2016-08-18T03:24:12.253Z,83.59
2016-08-18T03:32:12.741Z,98.86
2016-08-18T03:38:13.073Z,100.00
2016-08-18T03:44:13.415Z,99.13
2016-08-18T03:53:30.567Z,52.36
2016-08-18T03:56:30.761Z,36.89
2016-08-18T04:02:30.262Z,68.06
2016-08-18T04:08:30.592Z,74.66
2016-08-18T04:14:30.951Z,80.86
2016-08-18T04:20:31.464Z,64.89
2016-08-18T04:26:31.832Z,79.85
2016-08-18T04:34:32.468Z,0.00
2016-08-18T04:40:32.996Z,0.00
2016-08-18T04:53:33.972Z,0.00
2016-08-18T05:09:35.144Z,0.00
2016-08-18T05:19:36.007Z,0.00
2016-08-18T05:25:36.428Z,0.00
2016-08-18T05:32:36.954Z,0.00
2016-08-18T05:53:38.598Z,0.00
2016-08-18T05:59:39.065Z,0.00
2016-08-18T06:08:39.752Z,0.00
2016-08-18T06:56:43.530Z,0.00
2016-08-18T07:02:43.966Z,0.00
2016-08-18T07:08:44.438Z,0.00
2016-08-18T07:14:44.832Z,0.00
2016-08-18T07:20:45.289Z,0.02
2016-08-18T07:26:45.781Z,0.03
2016-08-18T07:32:46.189Z,0.01
2016-08-18T07:38:46.674Z,0.01
2016-08-18T07:44:47.145Z,0.01
2016-08-18T08:14:50.388Z,0.00
2016-08-18T08:20:49.872Z,0.01
2016-08-18T08:26:50.322Z,0.01
2016-08-18T08:32:50.770Z,0.00
2016-08-18T08:38:51.214Z,0.00
2016-08-18T08:44:51.680Z,0.00
2016-08-18T08:50:52.154Z,0.00
2016-08-18T08:56:52.553Z,0.10
2016-08-18T09:02:53.051Z,0.17
2016-08-18T09:08:53.460Z,0.06
2016-08-18T09:14:53.904Z,0.03
2016-08-18T09:20:54.377Z,0.02
2016-08-18T09:26:54.884Z,0.06
2016-08-18T09:32:55.357Z,0.00
2016-08-18T09:38:55.779Z,0.02
2016-08-18T09:44:56.193Z,1.77
2016-08-18T09:50:56.690Z,3.14
2016-08-18T09:56:57.069Z,2.36
2016-08-18T10:02:57.663Z,3.54
2016-08-18T10:08:58.165Z,5.90
2016-08-18T10:14:58.557Z,6.51
2016-08-18T10:20:59.015Z,7.19
2016-08-18T10:26:59.456Z,7.52
2016-08-18T10:32:59.901Z,8.10
2016-08-18T10:39:00.390Z,8.78
2016-08-18T10:45:00.853Z,10.15
2016-08-18T10:51:01.287Z,11.58
2016-08-18T10:57:01.733Z,12.78
2016-08-18T11:03:02.157Z,13.33
2016-08-18T11:09:02.601Z,13.92
2016-08-18T11:15:03.011Z,15.13
2016-08-18T11:21:03.436Z,16.13
2016-08-18T11:27:03.936Z,16.04
2016-08-18T11:33:04.381Z,16.30
2016-08-18T11:39:04.764Z,16.71
2016-08-18T11:45:05.270Z,16.64
2016-08-18T11:51:05.700Z,16.70
2016-08-18T12:17:08.276Z,15.70
2016-08-18T12:23:08.687Z,14.69
2016-08-18T12:29:08.650Z,14.66
2016-08-18T12:35:09.160Z,13.42
2016-08-18T12:41:09.565Z,13.36
2016-08-18T12:47:10.043Z,11.81
2016-08-18T12:53:10.490Z,9.75
2016-08-18T12:59:10.950Z,8.22
2016-08-18T13:05:11.470Z,6.40
2016-08-18T13:11:11.946Z,3.76
2016-08-18T13:17:12.407Z,1.19
2016-08-18T13:23:12.787Z,0.09
2016-08-18T13:29:13.283Z,0.03
2016-08-18T13:35:13.707Z,0.05
2016-08-18T13:41:14.141Z,0.02
2016-08-18T13:47:14.655Z,0.03
2016-08-18T13:53:15.057Z,0.02
2016-08-18T13:59:15.535Z,0.02
2016-08-18T14:05:15.948Z,0.02
2016-08-18T14:11:16.479Z,0.01
2016-08-18T14:17:16.961Z,0.02
2016-08-18T14:23:17.412Z,0.02
2016-08-18T14:29:17.808Z,0.04
2016-08-18T14:35:18.345Z,0.03
2016-08-18T14:41:18.782Z,0.08
2016-08-18T14:47:19.273Z,0.12
2016-08-18T14:53:19.712Z,0.12
2016-08-18T14:59:20.166Z,0.09
2016-08-18T15:05:20.644Z,0.07
2016-08-18T15:11:21.066Z,0.05
2016-08-18T15:17:24.995Z,0.03
2016-08-18T15:23:21.956Z,0.02
2016-08-18T15:29:22.473Z,0.06
2016-08-18T15:35:22.887Z,0.04
2016-08-18T15:41:23.365Z,0.04
2016-08-18T15:47:23.882Z,0.05
2016-08-18T15:53:24.303Z,0.07
2016-08-18T15:59:24.774Z,0.12
2016-08-18T16:05:25.234Z,0.18
2016-08-18T16:11:25.736Z,0.20
2016-08-18T16:17:26.169Z,0.15
2016-08-18T16:23:26.593Z,0.13
2016-08-18T16:29:27.062Z,0.16
2016-08-18T16:35:27.458Z,0.15
2016-08-18T16:41:27.937Z,0.05
2016-08-18T16:47:28.351Z,0.01
2016-08-18T16:53:28.862Z,0.03
2016-08-18T16:59:29.275Z,0.03
2016-08-18T17:05:30.289Z,0.04
2016-08-18T17:11:30.100Z,0.02
2016-08-18T17:17:30.562Z,0.00
2016-08-18T17:23:31.008Z,0.01
2016-08-18T17:29:31.485Z,0.02
2016-08-18T17:35:31.953Z,0.03
2016-08-18T17:41:32.473Z,0.07
2016-08-18T17:47:32.959Z,0.06
2016-08-18T17:53:33.467Z,0.15
2016-08-18T17:59:33.817Z,0.00
2016-08-18T18:05:36.221Z,0.00
2016-08-18T18:11:34.761Z,0.00
2016-08-18T18:17:37.444Z,0.00
2016-08-18T18:23:35.672Z,0.00
2016-08-18T18:29:36.088Z,0.00
2016-08-18T18:40:36.863Z,35.22
2016-08-18T18:46:40.462Z,63.92
2016-08-18T18:52:37.747Z,88.51
2016-08-18T18:58:38.235Z,100.00
2016-08-18T19:04:38.936Z,100.00
2016-08-18T19:10:39.599Z,100.00
2016-08-18T19:21:24.375Z,79.68
2016-08-18T19:27:24.719Z,97.62
2016-08-18T19:33:25.105Z,100.00
2016-08-18T19:39:25.382Z,99.99
2016-08-18T19:45:25.762Z,94.80
2016-08-18T19:51:26.123Z,68.14
2016-08-18T19:57:26.492Z,23.40
2016-08-18T20:03:26.794Z,4.15
2016-08-18T20:09:27.135Z,10.24
2016-08-18T20:15:27.453Z,21.97
2016-08-18T20:24:27.981Z,36.08
2016-08-18T20:30:28.286Z,37.21
2016-08-18T20:36:28.607Z,32.32
2016-08-18T20:43:29.008Z,40.99
2016-08-18T20:49:29.378Z,41.07
2016-08-18T20:55:29.699Z,25.68
2016-08-18T21:01:30.014Z,30.46
2016-08-18T21:08:30.413Z,44.32
2016-08-18T21:14:30.791Z,49.12
2016-08-18T21:25:31.407Z,37.26
2016-08-18T21:31:31.753Z,41.80
2016-08-18T21:38:32.134Z,51.82
2016-08-18T21:47:32.677Z,31.69
2016-08-18T21:56:33.229Z,53.76
2016-08-18T22:08:34.007Z,53.11
2016-08-18T22:14:34.475Z,63.20
2016-08-18T22:20:34.789Z,79.44
2016-08-18T22:27:35.190Z,63.69
2016-08-18T22:34:35.568Z,74.46
2016-08-18T22:43:36.091Z,48.64
2016-08-18T22:49:36.461Z,64.73
2016-08-18T22:58:36.975Z,49.05
2016-08-18T23:09:37.551Z,37.22
2016-08-18T23:15:37.903Z,33.35
2016-08-18T23:22:38.395Z,38.42
2016-08-18T23:28:38.700Z,15.00
2016-08-18T23:41:39.437Z,13.53
2016-08-18T23:47:39.751Z,34.78
2016-08-18T23:56:40.254Z,23.46
